Brora, United Kingdom
Current Conditions -  °F | °C
As of 4:50 PM on Saturday 25 Oct 2014 (Local Time) from EGQK Reporting Station
Clear Clear  
Wind Chill: 54°   Ceiling: Unl
Heat Index: 54°   Visibility: 6mi
Dew Point: 39°   Wind: 30mph
Humidity: 58%   Direction: 220°SW
Pressure: 29.44"   Gusts: 44mph
Location:  58.01°N, 3.85°W
Report Text: EGQK 251550Z AUTO 22026G38KT 9999 NCD 12/04 Q0997
Loading
Personal Weather Stations






























Interactive Weather Map New forecast layout! Learn more

10-Day Weather Forecast

Advertisements
Track Severe Weather on mobile